Time;durP1;ratioP1;P1;durP2;ratioP2;P2;SDS_P1;SDS_P2;PMS_P1;PMS_P2;Temp;Humidity;BMP_temperature;BMP_pressure;BME280_temperature;BME280_humidity;BME280_pressure;Samples;Min_cycle;Max_cycle;Signal;HPM_P1;HPM_P2
2021/12/15 00:00:59;;;;;;;310.67;57.60;;;2.40;99.90;;;;;;4428096;28;654839;-72
2021/12/15 00:03:47;;;;;;;313.37;59.27;;;2.40;99.90;;;;;;4404141;28;655249;-73
2021/12/15 00:06:36;;;;;;;310.37;62.80;;;2.40;99.90;;;;;;4419558;28;655362;-72
2021/12/15 00:09:25;;;;;;;357.37;62.37;;;2.40;99.90;;;;;;4395847;28;655227;-72
2021/12/15 00:12:15;;;;;;;282.80;60.47;;;2.40;99.90;;;;;;4399188;28;655441;-72
2021/12/15 00:15:03;;;;;;;307.97;59.87;;;2.30;99.90;;;;;;4403089;28;656951;-72
2021/12/15 00:17:51;;;;;;;283.00;60.77;;;2.40;99.90;;;;;;4411881;28;656163;-73
2021/12/15 00:20:38;;;;;;;415.20;63.90;;;2.40;99.90;;;;;;4420527;28;654974;-72
2021/12/15 00:23:26;;;;;;;254.60;60.33;;;2.40;99.90;;;;;;4399970;28;654272;-72
2021/12/15 00:26:14;;;;;;;487.97;66.43;;;2.40;99.90;;;;;;4416494;28;656360;-72
2021/12/15 00:29:05;;;;;;;350.93;62.30;;;2.30;99.90;;;;;;4401384;28;655796;-72
2021/12/15 00:31:53;;;;;;;301.17;59.03;;;2.40;99.90;;;;;;4400198;28;656366;-72
2021/12/15 00:34:41;;;;;;;331.43;59.40;;;2.30;99.90;;;;;;4402283;28;655678;-72
2021/12/15 00:37:29;;;;;;;359.13;59.13;;;2.30;99.90;;;;;;4414731;28;655951;-73
2021/12/15 00:40:19;;;;;;;478.53;61.60;;;2.30;99.90;;;;;;4395076;28;655671;-72
2021/12/15 00:43:06;;;;;;;298.40;61.83;;;2.30;99.90;;;;;;4399659;28;655258;-72
2021/12/15 00:45:56;;;;;;;315.43;63.50;;;2.30;99.90;;;;;;4418626;28;656648;-72
2021/12/15 00:48:45;;;;;;;312.60;64.53;;;2.30;99.90;;;;;;4391609;28;656375;-72
2021/12/15 00:51:32;;;;;;;558.77;65.60;;;2.30;99.90;;;;;;4394842;28;656737;-72
2021/12/15 00:54:22;;;;;;;209.57;55.93;;;2.30;99.90;;;;;;4416265;28;655790;-72
2021/12/15 00:57:10;;;;;;;280.45;60.95;;;2.30;99.90;;;;;;4394790;28;655903;-72
2021/12/15 00:59:57;;;;;;;430.13;63.50;;;2.30;99.90;;;;;;4394688;28;656071;-72
2021/12/15 01:02:47;;;;;;;233.73;57.10;;;2.30;99.90;;;;;;4418142;28;655727;-72
2021/12/15 01:05:36;;;;;;;213.97;56.13;;;2.30;99.90;;;;;;4394392;28;655296;-72
2021/12/15 01:08:25;;;;;;;288.58;57.92;;;2.30;99.90;;;;;;4393560;28;657379;-72
2021/12/15 01:11:22;;;;;;;250.40;55.20;;;2.40;99.90;;;;;;4394510;28;656656;-73
2021/12/15 01:20:22;;;;;;;313.30;52.83;;;2.40;99.90;;;;;;4375608;28;656155;-72
2021/12/15 01:23:13;;;;;;;248.00;52.43;;;2.40;99.90;;;;;;4399770;28;656619;-72
2021/12/15 01:26:04;;;;;;;573.53;54.77;;;2.40;99.90;;;;;;4397068;28;655042;-73
2021/12/15 01:28:52;;;;;;;511.53;56.83;;;2.30;99.90;;;;;;4400954;28;657150;-72
2021/12/15 01:31:39;;;;;;;300.20;53.37;;;2.20;99.90;;;;;;4423444;28;656201;-73
2021/12/15 01:34:27;;;;;;;278.77;53.17;;;2.20;99.90;;;;;;4403296;28;655879;-73
2021/12/15 01:37:17;;;;;;;408.33;54.57;;;2.20;99.90;;;;;;4424503;28;655462;-72
2021/12/15 01:40:05;;;;;;;451.10;55.90;;;2.30;99.90;;;;;;4399622;28;655218;-72
2021/12/15 01:42:53;;;;;;;472.73;60.90;;;2.30;99.90;;;;;;4398698;28;656377;-72
2021/12/15 01:48:55;;;;;;;417.97;60.43;;;2.20;99.90;;;;;;4386402;28;655516;-72
2021/12/15 01:51:43;;;;;;;507.13;63.30;;;2.30;99.90;;;;;;4381692;28;655616;-72
2021/12/15 01:54:33;;;;;;;374.70;61.65;;;2.30;99.90;;;;;;4410364;28;656216;-72
2021/12/15 01:57:21;;;;;;;620.77;65.27;;;2.40;99.90;;;;;;4408284;28;655267;-72
2021/12/15 02:00:12;;;;;;;523.13;62.63;;;2.30;99.90;;;;;;4427532;28;655990;-72
2021/12/15 02:02:59;;;;;;;575.13;68.33;;;2.30;99.90;;;;;;4401725;28;655330;-72
2021/12/15 02:05:47;;;;;;;556.70;67.20;;;2.30;99.90;;;;;;4409685;28;655801;-72
2021/12/15 02:08:35;;;;;;;641.95;70.97;;;2.30;99.90;;;;;;4428615;28;656124;-72
2021/12/15 02:11:25;;;;;;;562.30;67.53;;;2.30;99.90;;;;;;4394396;28;656229;-72
2021/12/15 02:14:12;;;;;;;571.27;66.43;;;2.30;99.90;;;;;;4392321;28;656290;-72
2021/12/15 02:17:00;;;;;;;648.60;71.97;;;2.30;99.90;;;;;;4421316;28;655456;-72
2021/12/15 02:19:48;;;;;;;616.33;72.10;;;2.20;99.90;;;;;;4402847;28;655766;-72
2021/12/15 02:22:37;;;;;;;534.50;71.07;;;2.20;99.90;;;;;;4409633;28;656657;-72
2021/12/15 02:25:25;;;;;;;487.53;69.23;;;2.20;99.90;;;;;;4422095;28;657047;-71
2021/12/15 02:28:12;;;;;;;546.37;69.57;;;2.30;99.90;;;;;;4394925;28;657151;-71
2021/12/15 02:31:09;;;;;;;507.70;68.73;;;2.30;99.90;;;;;;4425808;28;656693;-71
2021/12/15 02:34:06;;;;;;;480.90;68.33;;;2.30;99.90;;;;;;4371717;28;657287;-71
2021/12/15 02:37:16;;;;;;;298.27;59.27;;;2.30;99.90;;;;;;4402892;28;656659;-71
2021/12/15 02:40:09;;;;;;;458.40;59.70;;;2.30;99.90;;;;;;4412015;28;656897;-71
2021/12/15 02:42:57;;;;;;;363.93;57.87;;;2.40;99.90;;;;;;4397435;28;657600;-72
2021/12/15 02:45:44;;;;;;;445.10;62.00;;;2.40;99.90;;;;;;4434339;28;656689;-71
2021/12/15 02:48:32;;;;;;;348.53;57.60;;;2.40;99.90;;;;;;4415220;28;656587;-71
2021/12/15 02:51:20;;;;;;;394.53;59.03;;;2.40;99.90;;;;;;4435754;28;656946;-71
2021/12/15 02:54:08;;;;;;;437.97;62.47;;;2.30;99.90;;;;;;4415212;28;658119;-72
2021/12/15 02:57:04;;;;;;;360.83;61.10;;;2.30;99.90;;;;;;4423923;28;657415;-71
2021/12/15 02:59:58;;;;;;;430.67;62.77;;;2.30;99.90;;;;;;4426287;28;656201;-71
2021/12/15 03:05:58;;;;;;;409.43;60.97;;;2.30;99.90;;;;;;4409486;28;657564;-71
2021/12/15 03:08:57;;;;;;;330.77;58.50;;;2.30;99.90;;;;;;4397345;28;656405;-71
2021/12/15 03:17:57;;;;;;;363.03;59.57;;;2.30;99.90;;;;;;4392093;28;656516;-71
2021/12/15 03:20:48;;;;;;;297.13;55.57;;;2.30;99.90;;;;;;4437732;28;656683;-72
2021/12/15 03:23:43;;;;;;;296.13;55.87;;;2.40;99.90;;;;;;4391552;28;656487;-72
2021/12/15 03:26:33;;;;;;;276.23;55.43;;;2.40;99.90;;;;;;4391243;28;656914;-72
2021/12/15 03:35:46;;;;;;;272.53;53.63;;;2.40;99.90;;;;;;4338768;28;657001;-72
2021/12/15 03:38:34;;;;;;;224.68;55.60;;;2.40;99.90;;;;;;4361485;28;656325;-72
2021/12/15 03:41:23;;;;;;;258.30;53.80;;;2.40;99.90;;;;;;4360072;28;657501;-72
2021/12/15 03:44:11;;;;;;;238.50;55.67;;;2.40;99.90;;;;;;4364040;28;656434;-71
2021/12/15 03:47:03;;;;;;;298.37;53.77;;;2.40;99.90;;;;;;4390905;28;657700;-72
2021/12/15 03:49:52;;;;;;;250.57;52.77;;;2.40;99.90;;;;;;4347152;28;659104;-72
2021/12/15 03:52:41;;;;;;;234.73;51.87;;;2.40;99.90;;;;;;4383399;28;656701;-72
2021/12/15 03:55:29;;;;;;;250.57;53.23;;;2.40;99.90;;;;;;4385856;28;657594;-72
2021/12/15 03:58:21;;;;;;;178.40;49.23;;;2.40;99.90;;;;;;4360987;28;657011;-71
2021/12/15 04:01:11;;;;;;;226.47;52.13;;;2.40;99.90;;;;;;4359121;28;657762;-71
2021/12/15 04:03:59;;;;;;;269.93;53.03;;;2.40;99.90;;;;;;4363023;28;656882;-72
2021/12/15 04:06:48;;;;;;;203.70;51.90;;;2.40;99.90;;;;;;4363721;28;656887;-71
2021/12/15 04:09:36;;;;;;;205.60;49.70;;;2.50;99.90;;;;;;4369031;28;656968;-72
2021/12/15 04:12:23;;;;;;;299.57;51.87;;;2.50;99.90;;;;;;4390310;28;657689;-72
2021/12/15 04:15:25;;;;;;;200.67;49.50;;;2.50;99.90;;;;;;4413267;28;656394;-72
2021/12/15 04:18:13;;;;;;;213.23;50.77;;;2.50;99.90;;;;;;4389196;28;657422;-72
2021/12/15 04:21:01;;;;;;;200.93;50.40;;;2.50;99.90;;;;;;4420939;28;656487;-72
2021/12/15 04:23:51;;;;;;;285.17;54.87;;;2.50;99.90;;;;;;4436596;28;657244;-72
2021/12/15 04:26:39;;;;;;;224.83;51.83;;;2.50;99.90;;;;;;4411523;28;657528;-72
2021/12/15 04:29:28;;;;;;;376.13;52.60;;;2.50;99.90;;;;;;4421862;28;656303;-72
2021/12/15 04:32:20;;;;;;;220.27;47.83;;;2.40;99.90;;;;;;4419499;28;659704;-72
2021/12/15 04:35:08;;;;;;;254.23;50.17;;;2.40;99.90;;;;;;4409126;28;657666;-72
2021/12/15 04:37:55;;;;;;;189.60;49.40;;;2.40;99.90;;;;;;4417075;28;656617;-72
2021/12/15 04:40:45;;;;;;;224.83;51.60;;;2.40;99.90;;;;;;4435516;28;658136;-71
2021/12/15 04:43:34;;;;;;;243.70;50.37;;;2.40;99.90;;;;;;4417049;28;657337;-71
2021/12/15 04:46:22;;;;;;;269.40;50.93;;;2.40;99.90;;;;;;4418512;28;656665;-71
2021/12/15 04:49:11;;;;;;;199.43;49.30;;;2.50;99.90;;;;;;4431717;28;656736;-72
2021/12/15 04:51:58;;;;;;;185.87;47.50;;;2.40;99.90;;;;;;4412230;28;657211;-72
2021/12/15 04:54:46;;;;;;;164.70;45.63;;;2.50;99.90;;;;;;4420887;28;656450;-72
2021/12/15 04:57:35;;;;;;;223.63;46.87;;;2.40;99.90;;;;;;4438047;28;656537;-72
2021/12/15 05:00:24;;;;;;;165.30;46.63;;;2.50;99.90;;;;;;4415537;28;656868;-71
2021/12/15 05:03:11;;;;;;;153.63;44.30;;;2.40;99.90;;;;;;4414883;28;656415;-71
2021/12/15 05:05:59;;;;;;;154.27;43.80;;;2.40;99.90;;;;;;4438175;28;657751;-72
2021/12/15 05:08:47;;;;;;;143.63;45.08;;;2.40;99.90;;;;;;4419870;28;656416;-72
2021/12/15 05:11:34;;;;;;;143.60;43.83;;;2.40;99.90;;;;;;4438462;28;656210;-72
2021/12/15 05:14:24;;;;;;;153.90;45.20;;;2.40;99.90;;;;;;4415416;28;657322;-72
2021/12/15 05:17:12;;;;;;;273.97;48.50;;;2.40;99.90;;;;;;4407457;28;656829;-72
2021/12/15 05:20:03;;;;;;;180.93;46.17;;;2.50;99.90;;;;;;4432415;28;656645;-72
2021/12/15 05:22:51;;;;;;;172.20;45.17;;;2.50;99.90;;;;;;4393691;28;656858;-72
2021/12/15 05:25:38;;;;;;;214.83;47.17;;;2.40;99.90;;;;;;4445365;28;658508;-72
2021/12/15 05:28:26;;;;;;;201.47;46.90;;;2.40;99.90;;;;;;4417024;28;656974;-71
2021/12/15 05:31:15;;;;;;;316.77;49.67;;;2.40;99.90;;;;;;4438715;28;657614;-72
2021/12/15 05:34:03;;;;;;;243.18;50.10;;;2.40;99.90;;;;;;4403655;28;657775;-72
2021/12/15 05:36:52;;;;;;;332.27;52.73;;;2.40;99.90;;;;;;4418279;28;657114;-72
2021/12/15 05:39:40;;;;;;;435.67;54.57;;;2.40;99.90;;;;;;4438481;28;656743;-72
2021/12/15 05:42:27;;;;;;;442.97;55.63;;;2.40;99.90;;;;;;4408124;28;657874;-72
2021/12/15 05:45:16;;;;;;;354.87;53.13;;;2.40;99.90;;;;;;4424428;28;656959;-72
2021/12/15 05:48:05;;;;;;;484.17;55.40;;;2.40;99.90;;;;;;4434317;28;656906;-72
2021/12/15 05:50:54;;;;;;;416.23;57.47;;;2.40;99.90;;;;;;4417974;28;658479;-71
2021/12/15 05:53:43;;;;;;;432.73;55.73;;;2.30;99.90;;;;;;4418072;28;657068;-72
2021/12/15 05:56:31;;;;;;;386.60;56.97;;;2.30;99.90;;;;;;4417367;28;656637;-72
2021/12/15 05:59:18;;;;;;;510.87;60.57;;;2.30;99.90;;;;;;4437075;28;657172;-72
2021/12/15 06:02:06;;;;;;;298.27;53.97;;;2.20;99.90;;;;;;4418147;28;656966;-72
2021/12/15 06:04:55;;;;;;;382.03;56.93;;;2.30;99.90;;;;;;4439567;28;656510;-72
2021/12/15 06:07:43;;;;;;;430.67;57.53;;;2.30;99.90;;;;;;4426269;28;656607;-72
2021/12/15 06:10:31;;;;;;;402.87;57.30;;;2.30;99.90;;;;;;4424882;28;656432;-72
2021/12/15 06:13:22;;;;;;;459.07;59.67;;;2.30;99.90;;;;;;4443609;28;657950;-72
2021/12/15 06:16:10;;;;;;;468.60;58.80;;;2.30;99.90;;;;;;4418600;28;656707;-72
2021/12/15 06:18:57;;;;;;;448.83;59.30;;;2.30;99.90;;;;;;4418358;28;656607;-72
2021/12/15 06:21:47;;;;;;;344.20;58.07;;;2.40;99.90;;;;;;4438960;28;656868;-72
2021/12/15 06:24:36;;;;;;;545.60;59.75;;;2.30;99.90;;;;;;4434962;28;656698;-72
2021/12/15 06:27:23;;;;;;;352.27;56.87;;;2.30;99.90;;;;;;4415334;28;656773;-72
2021/12/15 06:30:11;;;;;;;501.57;60.20;;;2.30;99.90;;;;;;4419767;28;656791;-72
2021/12/15 06:32:59;;;;;;;494.33;58.07;;;2.30;99.90;;;;;;4436499;28;657242;-72
2021/12/15 06:35:53;;;;;;;399.17;56.40;;;2.30;99.90;;;;;;4420490;28;657348;-72
2021/12/15 06:38:45;;;;;;;563.63;61.60;;;2.40;99.90;;;;;;4408594;28;656605;-72
2021/12/15 06:41:33;;;;;;;488.03;59.17;;;2.30;99.90;;;;;;4412960;28;657502;-72
2021/12/15 06:44:20;;;;;;;472.60;61.00;;;2.30;99.90;;;;;;4420536;28;656601;-72
2021/12/15 06:59:29;;;;;;;557.00;64.37;;;2.40;99.90;;;;;;4417093;28;656573;-72
2021/12/15 07:02:17;;;;;;;480.10;61.03;;;2.40;99.90;;;;;;4420683;28;657708;-73
2021/12/15 07:05:07;;;;;;;490.63;57.72;;;2.40;99.90;;;;;;4433984;28;656670;-73
2021/12/15 07:07:56;;;;;;;670.30;66.63;;;2.40;99.90;;;;;;4435209;28;656519;-72
2021/12/15 07:10:49;;;;;;;606.17;64.80;;;2.40;99.90;;;;;;4443916;28;658127;-71
2021/12/15 07:13:38;;;;;;;578.63;66.13;;;2.40;99.90;;;;;;4388513;28;657180;-71
2021/12/15 07:16:28;;;;;;;435.63;60.63;;;2.40;99.90;;;;;;4420207;28;656762;-72
2021/12/15 07:19:20;;;;;;;570.28;64.18;;;2.50;99.90;;;;;;4428747;28;656752;-72
2021/12/15 07:22:14;;;;;;;483.73;59.67;;;2.50;99.90;;;;;;4421596;28;657137;-72
2021/12/15 07:25:03;;;;;;;736.07;70.73;;;2.50;99.90;;;;;;4410949;28;656661;-71
2021/12/15 07:27:51;;;;;;;707.83;72.23;;;2.60;99.90;;;;;;4419169;28;656498;-71
2021/12/15 07:30:40;;;;;;;687.90;70.57;;;2.60;99.90;;;;;;4437891;28;657902;-72
2021/12/15 07:33:27;;;;;;;500.93;66.23;;;2.60;99.90;;;;;;4410894;28;657867;-72
2021/12/15 07:36:16;;;;;;;538.03;68.73;;;2.60;99.90;;;;;;4431388;28;657221;-72
2021/12/15 07:39:04;;;;;;;587.47;66.30;;;2.60;99.90;;;;;;4430856;28;657397;-72
2021/12/15 07:41:53;;;;;;;770.53;74.93;;;2.70;99.90;;;;;;4414429;28;657796;-72
2021/12/15 07:44:41;;;;;;;566.42;61.97;;;2.70;99.90;;;;;;4412126;28;656479;-73
2021/12/15 07:47:30;;;;;;;423.67;55.43;;;2.70;99.90;;;;;;4436471;28;657054;-73
2021/12/15 07:50:19;;;;;;;541.17;60.53;;;2.70;99.90;;;;;;4407016;28;657823;-72
2021/12/15 07:53:07;;;;;;;483.43;57.33;;;2.60;99.90;;;;;;4413298;28;656824;-72
2021/12/15 07:55:54;;;;;;;368.13;49.03;;;2.60;99.90;;;;;;4445192;28;656218;-72
2021/12/15 07:58:42;;;;;;;425.87;55.63;;;2.70;99.90;;;;;;4418807;28;656294;-72
2021/12/15 08:01:30;;;;;;;587.73;61.50;;;2.60;99.90;;;;;;4439348;28;656056;-73
2021/12/15 08:04:19;;;;;;;560.47;57.83;;;2.70;99.90;;;;;;4415568;28;658196;-73
2021/12/15 08:07:07;;;;;;;551.83;58.43;;;2.70;99.90;;;;;;4407288;28;657143;-72
2021/12/15 08:09:54;;;;;;;473.63;58.53;;;2.70;99.90;;;;;;4436404;28;656854;-73
2021/12/15 08:12:43;;;;;;;547.43;60.57;;;2.70;99.90;;;;;;4415960;28;656685;-72
2021/12/15 08:15:31;;;;;;;555.57;61.93;;;2.80;99.90;;;;;;4432243;28;656592;-72
2021/12/15 08:18:18;;;;;;;682.70;66.20;;;2.70;99.90;;;;;;4442595;28;656760;-72
2021/12/15 08:21:08;;;;;;;587.30;59.07;;;2.70;99.90;;;;;;4414458;28;657101;-73
2021/12/15 08:23:56;;;;;;;493.50;55.70;;;2.80;99.90;;;;;;4425439;28;656456;-72
2021/12/15 08:26:44;;;;;;;569.47;59.53;;;2.80;99.90;;;;;;4431942;28;656839;-72
2021/12/15 08:29:32;;;;;;;713.50;65.33;;;2.90;99.90;;;;;;4415513;28;656213;-72
2021/12/15 08:32:20;;;;;;;751.80;64.43;;;2.90;99.90;;;;;;4433137;28;657679;-72
2021/12/15 08:35:08;;;;;;;664.23;61.03;;;2.90;99.90;;;;;;4406646;28;657626;-72
2021/12/15 08:37:58;;;;;;;648.57;59.37;;;2.90;99.90;;;;;;4427046;28;656258;-72
2021/12/15 08:40:46;;;;;;;573.47;57.45;;;2.90;99.90;;;;;;4428602;28;656339;-72
2021/12/15 08:43:34;;;;;;;686.70;66.93;;;2.80;99.90;;;;;;4431381;28;657272;-72
2021/12/15 08:46:24;;;;;;;468.73;54.83;;;2.80;99.90;;;;;;4422908;28;656790;-72
2021/12/15 08:49:14;;;;;;;521.43;55.67;;;2.80;99.90;;;;;;4427803;28;656696;-71
2021/12/15 08:52:02;;;;;;;572.23;59.30;;;2.90;99.90;;;;;;4417990;28;657122;-71
2021/12/15 08:54:51;;;;;;;414.75;53.75;;;2.90;99.90;;;;;;4429949;28;656869;-72
2021/12/15 08:57:46;;;;;;;494.03;53.10;;;2.90;99.90;;;;;;4406720;28;657498;-72
2021/12/15 09:00:34;;;;;;;692.43;59.37;;;2.90;99.90;;;;;;4406356;28;657865;-72
2021/12/15 09:03:22;;;;;;;734.73;60.87;;;2.90;99.90;;;;;;4410787;28;656702;-72
2021/12/15 09:06:09;;;;;;;590.13;55.13;;;2.90;99.90;;;;;;4429504;28;656958;-73
2021/12/15 09:08:57;;;;;;;606.97;54.70;;;2.90;99.90;;;;;;4410300;28;656657;-72
2021/12/15 09:11:47;;;;;;;379.63;51.40;;;2.90;99.90;;;;;;4428814;28;656901;-72
2021/12/15 09:14:35;;;;;;;616.83;53.90;;;2.90;99.90;;;;;;4420676;28;656456;-72
2021/12/15 09:17:22;;;;;;;366.33;50.33;;;3.00;99.90;;;;;;4411046;28;656991;-72
2021/12/15 09:20:12;;;;;;;493.97;50.13;;;3.00;99.90;;;;;;4425811;28;656213;-72
2021/12/15 09:23:01;;;;;;;382.20;45.60;;;3.00;99.90;;;;;;4437402;28;657403;-72
2021/12/15 09:25:49;;;;;;;389.70;48.60;;;3.00;99.90;;;;;;4424430;28;657836;-72
2021/12/15 09:28:38;;;;;;;431.67;49.63;;;3.00;99.90;;;;;;4423861;28;656638;-72
2021/12/15 09:31:26;;;;;;;482.55;49.67;;;3.10;99.90;;;;;;4416815;28;656720;-71
2021/12/15 09:34:17;;;;;;;551.60;51.47;;;3.10;99.90;;;;;;4443573;28;656128;-71
2021/12/15 09:37:05;;;;;;;336.90;45.30;;;3.20;99.90;;;;;;4425155;28;656040;-72
2021/12/15 09:39:53;;;;;;;301.87;44.50;;;3.20;99.90;;;;;;4433178;28;657163;-72
2021/12/15 09:42:41;;;;;;;449.50;46.13;;;3.30;99.90;;;;;;4410257;28;656547;-72
2021/12/15 09:45:39;;;;;;;366.53;44.33;;;3.30;99.90;;;;;;4429669;28;657388;-72
2021/12/15 10:02:01;;;;;;;575.87;56.67;;;3.30;99.90;;;;;;4412614;28;657260;-71
2021/12/15 10:04:20;;;;;;;570.00;54.60;;;3.30;99.90;;;;;;4419717;28;656507;-71
2021/12/15 10:07:23;;;;;;;482.47;56.63;;;3.30;99.90;;;;;;4410357;28;656396;-72
2021/12/15 10:19:51;;;;;;;575.63;53.27;;;3.40;99.90;;;;;;4346493;28;657090;-72
2021/12/15 10:22:41;;;;;;;565.97;57.00;;;3.40;99.90;;;;;;4370056;28;657192;-72
2021/12/15 10:25:31;;;;;;;738.50;60.27;;;3.40;99.90;;;;;;4370192;28;656247;-72
2021/12/15 10:28:20;;;;;;;529.20;52.93;;;3.40;99.90;;;;;;4369935;28;657817;-71
2021/12/15 10:31:10;;;;;;;819.00;60.43;;;3.40;99.90;;;;;;4370048;28;656829;-71
2021/12/15 10:34:03;;;;;;;429.93;48.17;;;3.40;99.90;;;;;;4374119;28;657905;-72
2021/12/15 10:36:51;;;;;;;448.83;45.50;;;3.40;99.90;;;;;;4351281;28;656382;-72
2021/12/15 10:39:39;;;;;;;682.47;50.53;;;3.40;99.90;;;;;;4392718;28;656928;-73
2021/12/15 10:42:30;;;;;;;561.20;48.20;;;3.50;99.90;;;;;;4373934;28;656735;-73
2021/12/15 10:45:17;;;;;;;769.63;56.87;;;3.50;99.90;;;;;;4371590;28;657312;-73
2021/12/15 10:48:10;;;;;;;841.33;63.10;;;3.50;99.90;;;;;;4394711;28;656475;-73
2021/12/15 10:51:00;;;;;;;859.42;68.60;;;3.50;99.90;;;;;;4377641;28;657618;-73
2021/12/15 10:53:47;;;;;;;694.90;60.97;;;3.50;99.90;;;;;;4373337;28;657663;-73
2021/12/15 10:56:37;;;;;;;661.77;59.77;;;3.60;99.90;;;;;;4395615;28;656919;-74
2021/12/15 10:59:25;;;;;;;825.97;58.47;;;3.70;99.90;;;;;;4436315;28;656722;-72
2021/12/15 11:02:16;;;;;;;689.50;58.13;;;3.70;99.90;;;;;;4409300;28;656740;-72
2021/12/15 11:05:05;;;;;;;579.37;49.03;;;3.70;99.90;;;;;;4417998;28;656779;-73
2021/12/15 11:07:55;;;;;;;956.47;66.50;;;3.60;99.90;;;;;;4425344;28;656745;-73
2021/12/15 11:10:43;;;;;;;935.93;64.93;;;3.60;99.90;;;;;;4412888;28;656925;-74
2021/12/15 11:13:32;;;;;;;391.20;43.77;;;3.60;99.90;;;;;;4418182;28;656766;-74
2021/12/15 11:16:29;;;;;;;804.80;64.10;;;3.60;99.90;;;;;;4425145;28;657548;-73
2021/12/15 11:19:55;;;;;;;951.20;67.73;;;3.60;99.90;;;;;;4390131;28;656777;-73
2021/12/15 11:22:59;;;;;;;682.03;62.03;;;3.70;99.90;;;;;;4333189;28;657139;-74
2021/12/15 11:25:49;;;;;;;748.20;70.20;;;3.70;99.90;;;;;;4360050;28;656985;-73
2021/12/15 11:28:39;;;;;;;974.17;72.17;;;3.70;99.90;;;;;;4368877;28;657337;-73
2021/12/15 11:31:31;;;;;;;940.37;66.63;;;3.70;99.90;;;;;;4359043;28;657044;-73
2021/12/15 11:34:19;;;;;;;657.00;60.27;;;3.70;99.90;;;;;;4359158;28;656880;-73
2021/12/15 11:37:06;;;;;;;733.83;61.70;;;3.80;99.90;;;;;;4359028;28;656979;-74
2021/12/15 11:40:03;;;;;;;580.60;53.80;;;3.80;99.90;;;;;;4377082;28;656819;-73
2021/12/15 11:42:51;;;;;;;609.40;52.10;;;3.80;99.90;;;;;;4334686;28;656964;-73
2021/12/15 11:45:42;;;;;;;569.83;56.73;;;3.80;99.90;;;;;;4377724;28;657861;-73
2021/12/15 11:48:32;;;;;;;615.83;57.63;;;3.80;99.90;;;;;;4364445;28;657106;-73
2021/12/15 11:51:28;;;;;;;650.20;60.13;;;3.80;99.90;;;;;;4386108;28;656537;-72
2021/12/15 11:54:19;;;;;;;643.87;58.97;;;3.70;99.90;;;;;;4353071;28;657280;-73
2021/12/15 11:57:09;;;;;;;891.23;73.87;;;3.70;99.90;;;;;;4358005;28;657168;-72
2021/12/15 11:59:59;;;;;;;622.60;58.23;;;3.80;99.90;;;;;;4358684;28;656581;-73
2021/12/15 12:02:47;;;;;;;926.30;70.03;;;3.80;99.90;;;;;;4383799;28;656442;-73
2021/12/15 12:05:36;;;;;;;803.07;64.17;;;3.80;99.90;;;;;;4434602;28;656711;-73
2021/12/15 12:08:24;;;;;;;712.77;59.80;;;3.90;99.90;;;;;;4406244;28;656997;-73
2021/12/15 12:11:15;;;;;;;516.97;50.80;;;3.90;99.90;;;;;;4408162;28;656522;-73
2021/12/15 12:14:04;;;;;;;681.90;53.93;;;4.00;99.90;;;;;;4410541;28;656426;-73
2021/12/15 12:16:52;;;;;;;694.67;54.07;;;4.00;99.90;;;;;;4418527;28;656810;-73
2021/12/15 12:19:44;;;;;;;803.10;56.33;;;4.00;99.90;;;;;;4434761;28;656310;-73
2021/12/15 12:22:33;;;;;;;466.23;44.30;;;4.00;99.90;;;;;;4425108;28;656627;-73
2021/12/15 12:25:22;;;;;;;468.67;49.23;;;4.00;99.90;;;;;;4426078;28;657109;-73
2021/12/15 12:28:13;;;;;;;631.40;49.43;;;4.00;99.90;;;;;;4440278;28;657046;-73
2021/12/15 12:31:03;;;;;;;590.20;49.57;;;4.00;99.90;;;;;;4401565;28;656852;-73
2021/12/15 12:33:52;;;;;;;519.10;43.97;;;4.00;99.90;;;;;;4411314;28;656670;-73
2021/12/15 12:36:39;;;;;;;555.33;48.60;;;4.00;99.90;;;;;;4429406;28;656333;-73
2021/12/15 12:39:31;;;;;;;550.83;44.77;;;4.00;99.90;;;;;;4427837;28;656523;-74
2021/12/15 12:42:34;;;;;;;600.10;46.70;;;4.00;99.90;;;;;;4424928;28;656325;-73
2021/12/15 12:45:31;;;;;;;731.17;51.73;;;3.90;99.90;;;;;;4418583;28;657077;-73
2021/12/15 12:58:01;;;;;;;764.00;54.13;;;3.90;99.90;;;;;;4285612;28;657319;-73
2021/12/15 13:00:52;;;;;;;919.43;63.40;;;3.90;99.90;;;;;;4288903;28;657424;-73
2021/12/15 13:03:45;;;;;;;746.27;55.60;;;3.90;99.90;;;;;;4305052;28;656430;-74
2021/12/15 13:06:34;;;;;;;848.97;57.80;;;3.90;99.90;;;;;;4274212;28;657697;-74
2021/12/15 13:09:21;;;;;;;816.03;60.30;;;3.90;99.90;;;;;;4286734;28;656704;-72
2021/12/15 13:12:19;;;;;;;739.23;54.33;;;3.90;99.90;;;;;;4308750;28;656391;-74
2021/12/15 13:15:07;;;;;;;709.87;52.87;;;3.90;99.90;;;;;;4268218;28;656888;-74
2021/12/15 13:17:58;;;;;;;659.43;49.37;;;3.90;99.90;;;;;;4305117;28;656834;-75
2021/12/15 13:20:53;;;;;;;677.80;49.53;;;3.90;99.90;;;;;;4274775;28;656717;-75
2021/12/15 13:23:47;;;;;;;726.47;53.07;;;3.90;99.90;;;;;;4255155;28;657067;-74
2021/12/15 13:29:54;;;;;;;786.43;53.27;;;3.90;99.90;;;;;;4286124;28;657169;-73
2021/12/15 13:32:47;;;;;;;496.93;43.47;;;3.90;99.90;;;;;;4327379;28;656307;-73
2021/12/15 13:35:44;;;;;;;720.83;57.47;;;3.80;99.90;;;;;;4409789;28;656979;-73
2021/12/15 13:38:34;;;;;;;841.03;57.63;;;3.90;99.90;;;;;;4424952;28;656817;-74
2021/12/15 13:41:37;;;;;;;754.40;50.77;;;3.80;99.90;;;;;;4407664;28;657128;-74
2021/12/15 13:44:29;;;;;;;469.63;41.17;;;3.80;99.90;;;;;;4409459;28;657205;-73
2021/12/15 13:47:19;;;;;;;692.00;48.13;;;3.90;99.90;;;;;;4410165;28;656859;-72
2021/12/15 13:50:15;;;;;;;658.50;46.85;;;3.90;99.90;;;;;;4415401;28;656870;-72
2021/12/15 13:53:04;;;;;;;719.90;49.13;;;3.90;99.90;;;;;;4382605;28;657085;-74
2021/12/15 13:55:53;;;;;;;350.70;34.40;;;3.80;99.90;;;;;;4411974;28;656440;-73
2021/12/15 13:58:41;;;;;;;637.70;45.87;;;3.90;99.90;;;;;;4419076;28;657080;-73
2021/12/15 14:01:28;;;;;;;648.00;43.70;;;3.90;99.90;;;;;;4442090;28;656254;-73
2021/12/15 14:04:41;;;;;;;418.23;34.37;;;3.90;99.90;;;;;;4419922;28;657141;-74
2021/12/15 14:07:51;;;;;;;741.43;47.07;;;3.90;99.90;;;;;;4410689;28;656992;-73
2021/12/15 14:14:08;;;;;;;638.80;46.17;;;3.90;99.90;;;;;;4361212;28;657000;-73
2021/12/15 14:16:56;;;;;;;649.47;46.57;;;3.90;99.90;;;;;;4367124;28;656681;-73
2021/12/15 14:19:44;;;;;;;673.23;48.27;;;3.90;99.90;;;;;;4383754;28;657239;-73
2021/12/15 14:22:32;;;;;;;726.97;50.90;;;3.90;99.90;;;;;;4371659;28;656699;-73
2021/12/15 14:25:19;;;;;;;663.57;50.30;;;3.90;99.90;;;;;;4386842;28;656331;-73
2021/12/15 14:28:07;;;;;;;563.43;45.63;;;3.90;99.90;;;;;;4364577;28;656581;-73
2021/12/15 14:31:01;;;;;;;466.97;43.77;;;3.90;99.90;;;;;;4385292;28;656424;-73
2021/12/15 14:33:51;;;;;;;589.10;48.57;;;3.80;99.90;;;;;;4397847;28;656863;-72
2021/12/15 14:36:41;;;;;;;418.77;40.70;;;3.90;99.90;;;;;;4420146;28;657388;-71
2021/12/15 14:39:34;;;;;;;510.02;42.83;;;3.80;99.90;;;;;;4421622;28;656866;-72
2021/12/15 14:42:23;;;;;;;473.13;44.17;;;3.90;99.90;;;;;;4421512;28;656392;-72
2021/12/15 14:45:11;;;;;;;499.95;43.60;;;3.90;99.90;;;;;;4422027;28;656985;-73
2021/12/15 14:48:01;;;;;;;403.07;41.90;;;3.90;99.90;;;;;;4436478;28;656788;-73
2021/12/15 14:50:48;;;;;;;319.00;40.30;;;3.90;99.90;;;;;;4413119;28;657118;-73
2021/12/15 14:53:41;;;;;;;406.20;41.20;;;4.00;99.90;;;;;;4432303;28;656738;-73
2021/12/15 14:56:43;;;;;;;639.40;47.60;;;4.00;99.90;;;;;;4406585;28;656124;-73
2021/12/15 14:59:32;;;;;;;404.30;41.42;;;3.90;99.90;;;;;;4413054;28;656698;-73
2021/12/15 15:02:21;;;;;;;320.07;37.30;;;4.00;99.90;;;;;;4431539;28;656662;-73
2021/12/15 15:05:11;;;;;;;334.63;40.20;;;3.90;99.90;;;;;;4408574;28;656639;-73
2021/12/15 15:08:03;;;;;;;294.87;40.33;;;3.90;99.90;;;;;;4411462;28;657804;-73
2021/12/15 15:10:51;;;;;;;286.80;35.90;;;3.90;99.90;;;;;;4396152;28;656456;-72
2021/12/15 15:13:40;;;;;;;279.13;33.07;;;3.90;99.90;;;;;;4441816;28;657451;-71
2021/12/15 15:16:33;;;;;;;392.50;39.07;;;3.90;99.90;;;;;;4414335;28;657231;-72
2021/12/15 15:19:21;;;;;;;458.37;44.07;;;3.90;99.90;;;;;;4401465;28;656633;-72
2021/12/15 15:22:16;;;;;;;401.77;41.67;;;3.90;99.90;;;;;;4435670;28;657608;-72
2021/12/15 15:25:06;;;;;;;424.93;38.33;;;3.90;99.90;;;;;;4415236;28;656471;-72
2021/12/15 15:27:56;;;;;;;506.10;41.47;;;3.90;99.90;;;;;;4417446;28;657217;-72